createdAt,value
2022-10-13T00:00:44.285Z,21.08
2022-10-13T00:03:12.033Z,16.77
2022-10-13T00:05:43.607Z,19.83
2022-10-13T00:08:11.911Z,21.80
2022-10-13T00:10:46.752Z,19.93
2022-10-13T00:13:14.327Z,18.85
2022-10-13T00:15:44.084Z,22.63
2022-10-13T00:18:11.521Z,19.17
2022-10-13T00:20:52.952Z,16.85
2022-10-13T00:23:19.789Z,20.60
2022-10-13T00:25:49.447Z,22.02
2022-10-13T00:28:19.365Z,19.73
2022-10-13T00:30:46.946Z,19.98
2022-10-13T00:33:14.469Z,21.02
2022-10-13T00:35:47.343Z,19.40
2022-10-13T00:38:19.788Z,18.33
2022-10-13T00:40:48.842Z,20.40
2022-10-13T00:43:18.900Z,19.15
2022-10-13T00:45:46.496Z,30.75
2022-10-13T00:48:13.665Z,17.20
2022-10-13T00:50:42.750Z,20.67
2022-10-13T00:53:11.898Z,23.00
2022-10-13T00:55:42.497Z,20.55
2022-10-13T00:58:12.661Z,19.73
2022-10-13T01:00:39.982Z,17.97
2022-10-13T01:03:06.840Z,19.52
2022-10-13T01:05:37.157Z,20.30
2022-10-13T01:08:04.752Z,19.15
2022-10-13T01:10:53.071Z,19.08
2022-10-13T01:13:35.837Z,21.53
2022-10-13T01:16:19.580Z,22.35
2022-10-13T01:19:29.480Z,18.25
2022-10-13T01:22:28.260Z,17.48
2022-10-13T01:25:24.107Z,19.15
2022-10-13T01:28:47.222Z,21.27
2022-10-13T01:31:25.245Z,18.15
2022-10-13T01:34:03.262Z,18.73
2022-10-13T01:36:52.697Z,16.13
2022-10-13T01:39:44.535Z,21.30
2022-10-13T01:42:40.099Z,15.80
2022-10-13T01:45:16.479Z,19.55
2022-10-13T01:47:44.155Z,16.48
2022-10-13T01:50:11.214Z,21.00
2022-10-13T01:52:42.621Z,18.40
2022-10-13T01:55:12.556Z,22.33
2022-10-13T01:57:42.806Z,21.20
2022-10-13T02:00:12.062Z,18.73
2022-10-13T02:03:04.585Z,19.33
2022-10-13T02:06:09.496Z,18.08
2022-10-13T02:08:49.744Z,17.50
2022-10-13T02:11:24.120Z,17.08
2022-10-13T02:14:04.108Z,16.60
2022-10-13T02:16:40.144Z,17.60
2022-10-13T02:19:09.665Z,17.17
2022-10-13T02:21:38.820Z,17.13
2022-10-13T02:24:06.827Z,21.88
2022-10-13T02:26:34.807Z,18.67
2022-10-13T02:29:14.595Z,18.98
2022-10-13T02:31:42.535Z,20.85
2022-10-13T02:34:09.977Z,17.00
2022-10-13T02:36:40.268Z,16.10
2022-10-13T02:39:09.888Z,22.20
2022-10-13T02:41:36.697Z,23.52
2022-10-13T02:44:04.346Z,19.23
2022-10-13T02:46:34.716Z,18.33
2022-10-13T02:49:01.705Z,19.77
2022-10-13T02:51:29.057Z,20.15
2022-10-13T02:53:55.961Z,20.15
2022-10-13T02:56:23.161Z,18.15
2022-10-13T02:58:49.984Z,17.73
2022-10-13T03:01:17.007Z,18.92
2022-10-13T03:03:44.797Z,17.38
2022-10-13T03:06:11.587Z,18.63
2022-10-13T03:08:39.041Z,19.65
2022-10-13T03:11:06.051Z,16.57
2022-10-13T03:13:33.293Z,21.05
2022-10-13T03:16:07.189Z,22.00
2022-10-13T03:18:34.419Z,17.95
2022-10-13T03:21:04.967Z,20.55
2022-10-13T03:23:32.895Z,20.20
2022-10-13T03:25:59.798Z,19.20
2022-10-13T03:28:26.628Z,18.95
2022-10-13T03:31:08.173Z,20.55
2022-10-13T03:33:35.544Z,18.73
2022-10-13T03:36:04.404Z,19.03
2022-10-13T03:38:33.588Z,17.52
2022-10-13T03:41:12.118Z,20.20
2022-10-13T03:43:42.579Z,20.08
2022-10-13T03:46:12.680Z,22.77
2022-10-13T03:48:41.385Z,17.23
2022-10-13T03:51:11.568Z,19.27
2022-10-13T03:53:45.410Z,19.60
2022-10-13T03:56:24.981Z,18.83
2022-10-13T03:58:55.332Z,18.30
2022-10-13T04:01:24.282Z,20.27
2022-10-13T04:03:53.964Z,23.02
2022-10-13T04:06:21.051Z,18.65
2022-10-13T04:08:48.806Z,20.67
2022-10-13T04:11:17.061Z,19.70
2022-10-13T04:13:46.090Z,20.20
2022-10-13T04:16:21.556Z,22.55
2022-10-13T04:18:53.164Z,20.23
2022-10-13T04:21:20.585Z,18.60
2022-10-13T04:23:47.300Z,19.73
2022-10-13T04:26:20.417Z,19.83
2022-10-13T04:28:49.022Z,18.13
2022-10-13T04:31:17.172Z,18.98
2022-10-13T04:33:45.726Z,20.42
2022-10-13T04:36:14.114Z,20.05
2022-10-13T04:38:42.645Z,22.70
2022-10-13T04:41:10.537Z,19.35
2022-10-13T04:43:37.522Z,18.48
2022-10-13T04:46:13.965Z,20.20
2022-10-13T04:48:41.338Z,20.23
2022-10-13T04:51:17.536Z,22.67
2022-10-13T04:53:44.802Z,21.48
2022-10-13T04:56:14.960Z,21.95
2022-10-13T04:58:43.187Z,22.98
2022-10-13T05:01:21.450Z,18.88
2022-10-13T05:03:57.562Z,20.20
2022-10-13T05:06:27.262Z,21.92
2022-10-13T05:08:57.331Z,22.40
2022-10-13T05:11:25.430Z,18.70
2022-10-13T05:13:52.860Z,19.65
2022-10-13T05:16:21.180Z,23.00
2022-10-13T05:18:52.622Z,20.80
2022-10-13T05:21:22.531Z,23.90
2022-10-13T05:23:49.846Z,23.98
2022-10-13T05:26:18.298Z,20.33
2022-10-13T05:28:45.701Z,19.93
2022-10-13T05:31:19.006Z,21.92
2022-10-13T05:33:47.095Z,20.23
2022-10-13T05:36:23.584Z,19.33
2022-10-13T05:38:52.725Z,16.92
2022-10-13T05:41:20.745Z,20.73
2022-10-13T05:43:48.539Z,19.77
2022-10-13T05:46:15.994Z,24.90
2022-10-13T05:48:42.878Z,22.77
2022-10-13T05:51:16.218Z,21.38
2022-10-13T05:53:51.012Z,22.40
2022-10-13T05:56:25.152Z,25.50
2022-10-13T05:58:58.696Z,22.20
2022-10-13T06:01:28.810Z,21.45
2022-10-13T06:04:01.848Z,25.95
2022-10-13T06:06:31.634Z,23.83
2022-10-13T06:09:02.177Z,25.70
2022-10-13T06:11:31.955Z,22.85
2022-10-13T06:13:59.596Z,20.88
2022-10-13T06:16:26.677Z,22.45
2022-10-13T06:18:55.966Z,22.17
2022-10-13T06:21:23.725Z,24.38
2022-10-13T06:23:51.720Z,23.92
2022-10-13T06:26:20.494Z,28.25
2022-10-13T06:28:50.453Z,23.48
2022-10-13T06:31:19.308Z,22.30
2022-10-13T06:33:46.675Z,22.98
2022-10-13T06:36:14.237Z,22.65
2022-10-13T06:38:41.021Z,26.70
2022-10-13T06:41:08.131Z,27.35
2022-10-13T06:43:40.496Z,21.60
2022-10-13T06:46:11.794Z,24.55
2022-10-13T06:48:38.843Z,26.70
2022-10-13T06:51:10.624Z,26.45
2022-10-13T06:53:38.146Z,25.98
2022-10-13T06:56:07.291Z,26.97
2022-10-13T06:58:35.889Z,28.92
2022-10-13T07:01:03.728Z,26.20
2022-10-13T07:03:30.754Z,27.83
2022-10-13T07:06:06.139Z,24.88
2022-10-13T07:08:34.339Z,25.37
2022-10-13T07:11:11.675Z,25.63
2022-10-13T07:13:46.198Z,28.15
2022-10-13T07:16:16.356Z,23.70
2022-10-13T07:18:48.385Z,29.73
2022-10-13T07:21:15.345Z,27.20
2022-10-13T07:23:42.199Z,28.27
2022-10-13T07:26:12.452Z,29.80
2022-10-13T07:28:39.653Z,29.80
2022-10-13T07:31:11.826Z,28.80
2022-10-13T07:33:39.455Z,27.97
2022-10-13T07:36:06.701Z,25.23
2022-10-13T07:38:34.050Z,27.33
2022-10-13T07:41:02.488Z,24.88
2022-10-13T07:43:29.380Z,29.92
2022-10-13T07:45:59.788Z,30.33
2022-10-13T07:48:28.398Z,25.60
2022-10-13T07:50:57.202Z,26.67
2022-10-13T07:53:24.574Z,26.52
2022-10-13T07:55:51.448Z,27.63
2022-10-13T07:58:18.884Z,25.90
2022-10-13T08:00:45.616Z,24.48
2022-10-13T08:03:12.922Z,24.77
2022-10-13T08:05:40.227Z,27.10
2022-10-13T08:08:07.112Z,28.65
2022-10-13T08:10:34.819Z,28.53
2022-10-13T08:13:07.212Z,26.23
2022-10-13T08:15:34.059Z,24.90
2022-10-13T08:18:01.378Z,29.45
2022-10-13T08:20:40.970Z,24.05
2022-10-13T08:23:08.646Z,25.53
2022-10-13T08:25:43.359Z,26.73
2022-10-13T08:28:22.369Z,25.38
2022-10-13T08:30:50.516Z,26.38
2022-10-13T08:33:17.706Z,26.15
2022-10-13T08:35:44.673Z,22.30
2022-10-13T08:38:12.904Z,29.08
2022-10-13T08:40:41.538Z,27.02
2022-10-13T08:43:12.933Z,23.70
2022-10-13T08:45:41.701Z,26.10
2022-10-13T08:48:18.190Z,23.13
2022-10-13T08:50:49.320Z,22.17
2022-10-13T08:53:40.172Z,19.92
2022-10-13T08:56:17.574Z,27.23
2022-10-13T08:58:48.699Z,24.98
2022-10-13T09:01:21.841Z,23.53
2022-10-13T09:03:56.204Z,22.85
2022-10-13T09:06:41.259Z,22.10
2022-10-13T09:09:15.491Z,22.67
2022-10-13T09:11:46.316Z,22.88
2022-10-13T09:14:24.748Z,22.90
2022-10-13T09:16:55.468Z,19.23
2022-10-13T09:19:32.104Z,20.65
2022-10-13T09:22:15.983Z,22.02
2022-10-13T09:24:43.153Z,19.30
2022-10-13T09:27:16.281Z,19.63
2022-10-13T09:29:44.818Z,21.00
2022-10-13T09:32:23.810Z,18.77
2022-10-13T09:34:52.778Z,21.02
2022-10-13T09:37:25.984Z,24.00
2022-10-13T09:40:14.784Z,22.47
2022-10-13T09:42:53.217Z,22.23
2022-10-13T09:45:24.460Z,18.40
2022-10-13T09:47:58.287Z,20.40
2022-10-13T09:50:29.085Z,20.38
2022-10-13T09:53:10.900Z,20.47
2022-10-13T09:55:38.174Z,18.73
2022-10-13T09:58:14.610Z,20.65
2022-10-13T10:00:42.609Z,20.40
2022-10-13T10:03:32.308Z,22.17
2022-10-13T10:06:05.824Z,20.43
2022-10-13T10:09:03.247Z,16.55
2022-10-13T10:11:42.347Z,19.88
2022-10-13T10:14:15.283Z,18.20
2022-10-13T10:16:50.597Z,19.17
2022-10-13T10:19:44.332Z,19.53
2022-10-13T10:22:21.749Z,19.90
2022-10-13T10:25:05.106Z,18.05
2022-10-13T10:27:42.924Z,19.92
2022-10-13T10:30:15.692Z,19.85
2022-10-13T10:33:20.982Z,18.57
2022-10-13T10:35:49.754Z,18.85
2022-10-13T10:38:25.534Z,24.42
2022-10-13T10:41:16.408Z,22.40
2022-10-13T10:43:55.330Z,19.85
2022-10-13T10:46:30.862Z,23.53
2022-10-13T10:49:04.422Z,23.63
2022-10-13T10:51:36.563Z,20.08
2022-10-13T10:54:29.453Z,23.38
2022-10-13T10:57:14.601Z,23.83
2022-10-13T10:59:41.268Z,17.20
2022-10-13T11:02:08.118Z,24.83
2022-10-13T11:04:44.887Z,22.00
2022-10-13T11:07:22.693Z,23.77
2022-10-13T11:09:50.405Z,18.55
2022-10-13T11:12:20.155Z,21.70
2022-10-13T11:15:02.067Z,21.00
2022-10-13T11:17:39.713Z,20.27
2022-10-13T11:20:21.502Z,23.70
2022-10-13T11:23:00.449Z,23.10
2022-10-13T11:25:41.965Z,22.03
2022-10-13T11:28:20.914Z,20.98
2022-10-13T11:31:17.704Z,25.83
2022-10-13T11:33:45.639Z,20.08
2022-10-13T11:36:32.593Z,23.77
2022-10-13T11:39:36.404Z,24.70
2022-10-13T11:42:13.928Z,24.58
2022-10-13T11:44:55.449Z,24.80
2022-10-13T11:48:00.349Z,25.35
2022-10-13T11:50:58.266Z,25.58
2022-10-13T11:53:28.069Z,24.73
2022-10-13T11:56:01.405Z,21.95
2022-10-13T11:58:30.986Z,25.15
2022-10-13T12:01:01.600Z,20.15
2022-10-13T12:03:31.491Z,19.85
2022-10-13T12:06:04.435Z,23.80
2022-10-13T12:08:34.647Z,16.50
2022-10-13T12:11:04.712Z,19.50
2022-10-13T12:13:33.278Z,20.42
2022-10-13T12:16:07.351Z,21.00
2022-10-13T12:18:41.521Z,19.93
2022-10-13T12:21:16.366Z,19.27
2022-10-13T12:23:44.019Z,14.95
2022-10-13T12:26:22.826Z,21.05
2022-10-13T12:28:55.073Z,16.70
2022-10-13T12:31:38.068Z,20.27
2022-10-13T12:34:14.328Z,19.08
2022-10-13T12:36:42.455Z,18.35
2022-10-13T12:39:13.879Z,24.92
2022-10-13T12:41:44.995Z,21.17
2022-10-13T12:44:24.910Z,19.33
2022-10-13T12:46:56.048Z,16.95
2022-10-13T12:49:25.661Z,16.52
2022-10-13T12:52:14.763Z,17.48
2022-10-13T12:54:51.992Z,19.90
2022-10-13T12:57:38.051Z,21.50
2022-10-13T13:00:20.348Z,21.20
2022-10-13T13:02:52.864Z,21.42
2022-10-13T13:05:37.971Z,21.13
2022-10-13T13:08:26.942Z,18.83
2022-10-13T13:11:19.559Z,18.57
2022-10-13T13:13:47.745Z,20.80
2022-10-13T13:16:21.815Z,22.45
2022-10-13T13:18:50.304Z,17.80
2022-10-13T13:21:19.902Z,23.27
2022-10-13T13:23:52.805Z,20.40
2022-10-13T13:26:24.518Z,20.13
2022-10-13T13:28:56.163Z,18.17
2022-10-13T13:31:25.687Z,21.63
2022-10-13T13:33:52.541Z,20.08
2022-10-13T13:36:24.958Z,19.10
2022-10-13T13:38:55.285Z,20.10
2022-10-13T13:41:22.536Z,22.77
2022-10-13T13:43:49.847Z,20.17
2022-10-13T13:46:19.895Z,24.02
2022-10-13T13:48:46.725Z,19.17
2022-10-13T13:51:13.869Z,20.58
2022-10-13T13:53:40.643Z,19.98
2022-10-13T13:56:13.467Z,19.80
2022-10-13T13:58:40.202Z,20.30
2022-10-13T14:01:07.008Z,22.77
2022-10-13T14:03:33.755Z,21.13
2022-10-13T14:06:00.573Z,22.73
2022-10-13T14:08:31.743Z,20.85
2022-10-13T14:10:58.690Z,24.67
2022-10-13T14:13:25.561Z,25.13
2022-10-13T14:16:00.027Z,24.15
2022-10-13T14:18:27.274Z,20.08
2022-10-13T14:20:54.016Z,20.88
2022-10-13T14:23:20.811Z,27.95
2022-10-13T14:25:47.574Z,21.47
2022-10-13T14:28:18.513Z,24.65
2022-10-13T14:30:45.472Z,22.67
2022-10-13T14:33:12.209Z,22.08
2022-10-13T14:35:38.984Z,22.55
2022-10-13T14:38:06.066Z,22.80
2022-10-13T14:40:33.865Z,22.95
2022-10-13T14:43:00.697Z,22.33
2022-10-13T14:45:27.498Z,26.45
2022-10-13T14:47:54.174Z,22.52
2022-10-13T14:50:21.002Z,24.20
2022-10-13T14:52:52.054Z,22.00
2022-10-13T14:55:18.761Z,20.52
2022-10-13T14:57:45.514Z,21.70
2022-10-13T15:00:14.521Z,21.30
2022-10-13T15:02:42.511Z,22.60
2022-10-13T15:05:09.798Z,22.08
2022-10-13T15:07:40.803Z,19.27
2022-10-13T15:10:08.475Z,20.98
2022-10-13T15:12:35.357Z,23.98
2022-10-13T15:15:02.356Z,19.83
2022-10-13T15:17:30.905Z,20.38
2022-10-13T15:19:57.691Z,19.88
2022-10-13T15:22:24.541Z,17.80
2022-10-13T15:24:51.435Z,17.85
2022-10-13T15:27:18.241Z,19.33
2022-10-13T15:29:44.981Z,19.08
2022-10-13T15:32:20.427Z,18.05
2022-10-13T15:34:54.495Z,15.25
2022-10-13T15:37:21.229Z,17.58
2022-10-13T15:39:52.003Z,20.63
2022-10-13T15:42:21.667Z,17.98
2022-10-13T15:45:08.775Z,19.00
2022-10-13T15:47:36.384Z,21.73
2022-10-13T15:50:03.640Z,21.65
2022-10-13T15:52:34.665Z,23.13
2022-10-13T15:55:02.307Z,20.88
2022-10-13T15:57:31.054Z,19.40
2022-10-13T15:59:57.866Z,23.23
2022-10-13T16:02:24.686Z,19.73
2022-10-13T16:04:52.022Z,21.10
2022-10-13T16:07:18.713Z,19.98
2022-10-13T16:09:45.553Z,19.02
2022-10-13T16:12:12.259Z,17.90
2022-10-13T16:14:38.983Z,23.40
2022-10-13T16:17:05.759Z,18.03
2022-10-13T16:19:32.490Z,16.02
2022-10-13T16:21:59.226Z,15.50
2022-10-13T16:24:25.934Z,18.33
2022-10-13T16:26:52.783Z,19.48
2022-10-13T16:29:19.520Z,15.87
2022-10-13T16:31:46.371Z,15.32
2022-10-13T16:34:13.243Z,15.65
2022-10-13T16:36:40.102Z,13.63
2022-10-13T16:39:07.061Z,13.10
2022-10-13T16:41:33.928Z,15.00
2022-10-13T16:44:00.859Z,14.02
2022-10-13T16:46:27.615Z,13.85
2022-10-13T16:48:54.555Z,14.70
2022-10-13T16:51:23.830Z,15.38
2022-10-13T16:53:58.715Z,13.97
2022-10-13T16:56:30.144Z,13.93
2022-10-13T16:59:02.507Z,14.85
2022-10-13T17:01:30.142Z,15.27
2022-10-13T17:03:58.161Z,14.55
2022-10-13T17:06:28.075Z,11.87
2022-10-13T17:08:59.551Z,14.32
2022-10-13T17:11:31.355Z,10.85
2022-10-13T17:13:59.850Z,10.70
2022-10-13T17:16:31.282Z,9.52
2022-10-13T17:18:58.004Z,8.73
2022-10-13T17:21:32.985Z,9.38
2022-10-13T17:23:59.763Z,8.38
2022-10-13T17:26:26.492Z,10.50
2022-10-13T17:28:54.136Z,9.50
2022-10-13T17:31:23.224Z,6.90
2022-10-13T17:33:51.422Z,7.30
2022-10-13T17:36:29.580Z,8.23
2022-10-13T17:39:01.573Z,8.23
2022-10-13T17:41:28.276Z,9.00
2022-10-13T17:43:55.153Z,9.10
2022-10-13T17:46:38.947Z,9.02
2022-10-13T17:49:09.455Z,9.70
2022-10-13T17:51:36.322Z,9.35
2022-10-13T17:54:03.598Z,11.05
2022-10-13T17:56:30.611Z,9.43
2022-10-13T17:58:57.451Z,10.80
2022-10-13T18:01:27.967Z,10.52
2022-10-13T18:03:57.700Z,10.00
2022-10-13T18:06:43.717Z,10.40
2022-10-13T18:09:23.121Z,12.10
2022-10-13T18:11:51.315Z,9.30
2022-10-13T18:14:23.728Z,11.85
2022-10-13T18:16:51.970Z,10.68
2022-10-13T18:19:19.137Z,11.35
2022-10-13T18:21:45.948Z,10.60
2022-10-13T18:24:12.826Z,11.93
2022-10-13T18:26:40.034Z,12.18
2022-10-13T18:29:08.456Z,15.75
2022-10-13T18:31:37.309Z,12.43
2022-10-13T18:34:07.797Z,12.80
2022-10-13T18:36:37.875Z,14.90
2022-10-13T18:39:15.349Z,14.57
2022-10-13T18:41:45.977Z,15.32
2022-10-13T18:44:13.320Z,18.20
2022-10-13T18:46:40.721Z,15.53
2022-10-13T18:49:10.470Z,18.60
2022-10-13T18:51:38.818Z,17.38
2022-10-13T18:54:06.094Z,18.08
2022-10-13T18:56:34.180Z,18.67
2022-10-13T18:59:02.617Z,20.67
2022-10-13T19:01:32.038Z,19.23
2022-10-13T19:03:59.783Z,20.83
2022-10-13T19:06:28.411Z,24.05
2022-10-13T19:09:00.725Z,21.17
2022-10-13T19:11:29.295Z,23.00
2022-10-13T19:13:57.428Z,25.17
2022-10-13T19:16:25.897Z,22.55
2022-10-13T19:18:53.110Z,22.15
2022-10-13T19:21:21.556Z,22.02
2022-10-13T19:23:49.506Z,22.37
2022-10-13T19:26:23.696Z,20.58
2022-10-13T19:28:54.307Z,21.73
2022-10-13T19:31:23.382Z,23.65
2022-10-13T19:33:52.965Z,21.95
2022-10-13T19:36:23.691Z,20.50
2022-10-13T19:38:53.796Z,20.48
2022-10-13T19:41:21.044Z,20.77
2022-10-13T19:43:48.255Z,21.67
2022-10-13T19:46:15.422Z,26.00
2022-10-13T19:48:42.230Z,25.43
2022-10-13T19:51:09.477Z,25.13
2022-10-13T19:53:37.593Z,26.90
2022-10-13T19:56:05.353Z,24.17
2022-10-13T19:58:32.339Z,25.63
2022-10-13T20:01:05.220Z,26.40
2022-10-13T20:03:32.350Z,24.25
2022-10-13T20:05:59.085Z,27.58
2022-10-13T20:08:25.948Z,24.80
2022-10-13T20:10:52.734Z,25.92
2022-10-13T20:13:20.365Z,22.30
2022-10-13T20:15:48.073Z,23.13
2022-10-13T20:18:15.629Z,23.30
2022-10-13T20:20:42.371Z,22.33
2022-10-13T20:23:09.426Z,24.73
2022-10-13T20:25:38.829Z,26.97
2022-10-13T20:28:06.352Z,28.48
2022-10-13T20:30:33.439Z,33.47
2022-10-13T20:33:00.810Z,29.80
2022-10-13T20:35:28.016Z,29.88
2022-10-13T20:37:54.846Z,29.47
2022-10-13T20:40:21.763Z,28.13
2022-10-13T20:42:52.736Z,27.23
2022-10-13T20:45:20.406Z,25.90
2022-10-13T20:47:48.710Z,25.67
2022-10-13T20:50:15.839Z,25.00
2022-10-13T20:52:42.706Z,26.33
2022-10-13T20:55:09.964Z,24.33
2022-10-13T20:57:36.948Z,27.05
2022-10-13T21:00:05.716Z,25.70
2022-10-13T21:02:32.598Z,30.17
2022-10-13T21:04:59.474Z,26.45
2022-10-13T21:07:28.421Z,24.25
2022-10-13T21:09:55.431Z,23.58
2022-10-13T21:12:22.181Z,25.92
2022-10-13T21:14:48.944Z,27.83
2022-10-13T21:17:15.867Z,27.25
2022-10-13T21:19:42.598Z,25.30
2022-10-13T21:22:09.546Z,31.52
2022-10-13T21:24:36.310Z,31.23
2022-10-13T21:27:03.334Z,32.23
2022-10-13T21:29:30.223Z,32.53
2022-10-13T21:31:56.957Z,33.70
2022-10-13T21:34:23.834Z,30.42
2022-10-13T21:36:50.639Z,30.10
2022-10-13T21:39:17.420Z,31.40
2022-10-13T21:41:44.217Z,35.38
2022-10-13T21:44:14.773Z,34.08
2022-10-13T21:46:41.588Z,34.78
2022-10-13T21:49:09.232Z,33.90
2022-10-13T21:51:38.498Z,34.27
2022-10-13T21:54:13.181Z,39.22
2022-10-13T21:56:40.845Z,42.88
2022-10-13T21:59:08.767Z,39.35
2022-10-13T22:01:35.696Z,41.60
2022-10-13T22:04:09.707Z,38.77
2022-10-13T22:06:36.498Z,34.10
2022-10-13T22:09:05.082Z,46.63
2022-10-13T22:11:34.157Z,35.72
2022-10-13T22:14:05.961Z,36.03
2022-10-13T22:16:50.987Z,34.47
2022-10-13T22:19:19.143Z,36.88
2022-10-13T22:21:48.064Z,40.63
2022-10-13T22:24:20.629Z,41.42
2022-10-13T22:26:49.236Z,40.67
2022-10-13T22:29:19.483Z,38.03
2022-10-13T22:31:47.269Z,41.50
2022-10-13T22:34:15.173Z,38.35
2022-10-13T22:36:45.081Z,41.05
2022-10-13T22:39:12.959Z,72.00
2022-10-13T22:41:39.678Z,48.17
2022-10-13T22:44:06.517Z,39.80
2022-10-13T22:46:38.305Z,46.83
2022-10-13T22:49:06.257Z,44.13
2022-10-13T22:51:35.075Z,41.92
2022-10-13T22:54:03.065Z,42.80
2022-10-13T22:56:32.263Z,49.38
2022-10-13T22:59:04.922Z,41.28
2022-10-13T23:01:31.957Z,97.38
2022-10-13T23:03:59.472Z,70.90
2022-10-13T23:06:28.757Z,61.63
2022-10-13T23:08:56.128Z,41.72
2022-10-13T23:11:23.296Z,46.38
2022-10-13T23:13:50.185Z,58.65
2022-10-13T23:16:20.752Z,59.92
2022-10-13T23:18:47.633Z,80.67
2022-10-13T23:21:26.132Z,53.80
2022-10-13T23:23:57.936Z,164.18
2022-10-13T23:26:25.206Z,104.03
2022-10-13T23:28:54.591Z,108.28
2022-10-13T23:31:21.447Z,84.13
2022-10-13T23:33:48.506Z,70.60
2022-10-13T23:36:20.518Z,125.15
2022-10-13T23:38:55.456Z,149.00
2022-10-13T23:41:22.487Z,105.75
2022-10-13T23:43:49.471Z,109.07
2022-10-13T23:46:16.252Z,159.75
2022-10-13T23:48:42.974Z,93.15
2022-10-13T23:51:16.142Z,117.95
2022-10-13T23:53:43.406Z,61.90
2022-10-13T23:56:11.356Z,85.93
2022-10-13T23:58:40.193Z,101.13
